createdAt,value
2023-05-21T00:00:13.000Z,50.852821
2023-05-21T00:01:12.963Z,50.852837
2023-05-21T00:02:12.949Z,50.852825
2023-05-21T00:03:12.972Z,50.852802
2023-05-21T00:04:12.955Z,50.852829
2023-05-21T00:05:14.638Z,50.852859
2023-05-21T00:06:12.951Z,50.852821
2023-05-21T00:07:12.926Z,50.852818
2023-05-21T00:08:12.915Z,50.852791
2023-05-21T00:09:12.939Z,50.852798
2023-05-21T00:10:12.925Z,50.852810
2023-05-21T00:11:12.875Z,50.852844
2023-05-21T00:12:12.884Z,50.852859
2023-05-21T00:13:12.842Z,50.852840
2023-05-21T00:14:12.869Z,50.852768
2023-05-21T00:15:12.873Z,50.852783
2023-05-21T00:16:12.912Z,50.852806
2023-05-21T00:17:12.808Z,50.852833
2023-05-21T00:18:12.866Z,50.852802
2023-05-21T00:19:12.889Z,50.852825
2023-05-21T00:20:12.871Z,50.852814
2023-05-21T00:21:12.779Z,50.852821
2023-05-21T00:22:12.786Z,50.852825
2023-05-21T00:23:12.759Z,50.852806
2023-05-21T00:24:12.757Z,50.852856
2023-05-21T00:25:12.749Z,50.852837
2023-05-21T00:26:12.791Z,50.852856
2023-05-21T00:27:12.744Z,50.852825
2023-05-21T00:28:12.742Z,50.852810
2023-05-21T00:29:12.750Z,50.852814
2023-05-21T00:30:12.745Z,50.852810
2023-05-21T00:31:12.730Z,50.852833
2023-05-21T00:32:12.822Z,50.852821
2023-05-21T00:33:12.699Z,50.852837
2023-05-21T00:34:12.687Z,50.852859
2023-05-21T00:35:12.647Z,50.852863
2023-05-21T00:36:12.704Z,50.852825
2023-05-21T00:37:12.637Z,50.852818
2023-05-21T00:38:12.637Z,50.852871
2023-05-21T00:39:12.626Z,50.852745
2023-05-21T00:40:12.690Z,50.852818
2023-05-21T00:41:12.596Z,50.852829
2023-05-21T00:42:12.626Z,50.852833
2023-05-21T00:43:12.627Z,50.852798
2023-05-21T00:44:12.620Z,50.852825
2023-05-21T00:45:12.616Z,50.852806
2023-05-21T00:46:12.653Z,50.852795
2023-05-21T00:47:12.551Z,50.852837
2023-05-21T00:48:12.582Z,50.852818
2023-05-21T00:49:12.557Z,50.852833
2023-05-21T00:50:12.570Z,50.852821
2023-05-21T00:51:12.532Z,50.852821
2023-05-21T00:52:12.545Z,50.852818
2023-05-21T00:53:12.528Z,50.852825
2023-05-21T00:54:12.523Z,50.852852
2023-05-21T00:55:12.573Z,50.852821
2023-05-21T00:56:12.491Z,50.852806
2023-05-21T00:57:12.457Z,50.852821
2023-05-21T00:58:12.475Z,50.852829
2023-05-21T00:59:12.501Z,50.852844
2023-05-21T01:00:12.468Z,50.852825
2023-05-21T01:01:12.490Z,50.852833
2023-05-21T01:02:12.476Z,50.852867
2023-05-21T01:03:12.540Z,50.852833
2023-05-21T01:04:12.424Z,50.852844
2023-05-21T01:05:12.431Z,50.852833
2023-05-21T01:06:12.412Z,50.852856
2023-05-21T01:07:12.391Z,50.852859
2023-05-21T01:08:12.401Z,50.852840
2023-05-21T01:09:12.380Z,50.852852
2023-05-21T01:10:12.485Z,50.852856
2023-05-21T01:11:12.353Z,50.852921
2023-05-21T01:12:12.363Z,50.852867
2023-05-21T01:13:12.346Z,50.852852
2023-05-21T01:14:12.349Z,50.852844
2023-05-21T01:15:12.311Z,50.852795
2023-05-21T01:16:12.360Z,50.852825
2023-05-21T01:17:12.395Z,50.852810
2023-05-21T01:18:12.362Z,50.852825
2023-05-21T01:19:12.370Z,50.852859
2023-05-21T01:20:12.315Z,50.852852
2023-05-21T01:21:12.311Z,50.852859
2023-05-21T01:22:12.264Z,50.852840
2023-05-21T01:23:12.267Z,50.852821
2023-05-21T01:24:12.307Z,50.852818
2023-05-21T01:25:12.258Z,50.852810
2023-05-21T01:26:12.252Z,50.852818
2023-05-21T01:27:12.210Z,50.852825
2023-05-21T01:28:12.212Z,50.852833
2023-05-21T01:29:12.220Z,50.852798
2023-05-21T01:30:12.197Z,50.852814
2023-05-21T01:31:12.198Z,50.852837
2023-05-21T01:32:12.200Z,50.852840
2023-05-21T01:33:12.262Z,50.852833
2023-05-21T01:34:12.227Z,50.852837
2023-05-21T01:35:12.148Z,50.852806
2023-05-21T01:36:12.173Z,50.852802
2023-05-21T01:37:12.184Z,50.852818
2023-05-21T01:38:12.142Z,50.852844
2023-05-21T01:39:12.131Z,50.852905
2023-05-21T01:40:12.143Z,50.852798
2023-05-21T01:41:12.118Z,50.852779
2023-05-21T01:42:12.144Z,50.852795
2023-05-21T01:43:12.117Z,50.852840
2023-05-21T01:44:12.128Z,50.852802
2023-05-21T01:45:12.074Z,50.852814
2023-05-21T01:46:12.145Z,50.852818
2023-05-21T01:47:12.079Z,50.852806
2023-05-21T01:48:12.162Z,50.852829
2023-05-21T01:49:12.053Z,50.852859
2023-05-21T01:50:12.074Z,50.852879
2023-05-21T01:51:12.063Z,50.852859
2023-05-21T01:52:12.038Z,50.852879
2023-05-21T01:53:12.017Z,50.852856
2023-05-21T01:54:12.058Z,50.852810
2023-05-21T01:55:12.006Z,50.852818
2023-05-21T01:56:12.005Z,50.852814
2023-05-21T01:57:12.007Z,50.852856
2023-05-21T01:58:12.035Z,50.852871
2023-05-21T01:59:11.992Z,50.852833
2023-05-21T02:00:12.040Z,50.852859
2023-05-21T02:01:11.949Z,50.852810
2023-05-21T02:02:12.043Z,50.852818
2023-05-21T02:03:12.036Z,50.852779
2023-05-21T02:04:12.038Z,50.852783
2023-05-21T02:05:11.938Z,50.852757
2023-05-21T02:06:11.980Z,50.852806
2023-05-21T02:07:11.907Z,50.852848
2023-05-21T02:08:11.916Z,50.852829
2023-05-21T02:09:11.933Z,50.852829
2023-05-21T02:10:11.899Z,50.852787
2023-05-21T02:11:11.912Z,50.852802
2023-05-21T02:12:11.914Z,50.852810
2023-05-21T02:13:11.876Z,50.852821
2023-05-21T02:14:11.912Z,50.852814
2023-05-21T02:15:11.848Z,50.852814
2023-05-21T02:16:11.946Z,50.852814
2023-05-21T02:17:11.834Z,50.852844
2023-05-21T02:18:11.907Z,50.852844
2023-05-21T02:19:11.882Z,50.852818
2023-05-21T02:20:11.888Z,50.852833
2023-05-21T02:21:11.804Z,50.852818
2023-05-21T02:22:11.836Z,50.852818
2023-05-21T02:23:11.838Z,50.852821
2023-05-21T02:24:11.819Z,50.852798
2023-05-21T02:25:11.787Z,50.852798
2023-05-21T02:26:11.803Z,50.852825
2023-05-21T02:27:11.782Z,50.852844
2023-05-21T02:28:11.776Z,50.852825
2023-05-21T02:29:11.757Z,50.852844
2023-05-21T02:30:11.797Z,50.852795
2023-05-21T02:31:11.758Z,50.852821
2023-05-21T02:32:11.745Z,50.852814
2023-05-21T02:33:11.772Z,50.852772
2023-05-21T02:34:11.737Z,50.852768
2023-05-21T02:35:11.707Z,50.852844
2023-05-21T02:36:11.709Z,50.852821
2023-05-21T02:37:11.678Z,50.852798
2023-05-21T02:38:11.689Z,50.852791
2023-05-21T02:39:11.694Z,50.852779
2023-05-21T02:40:11.682Z,50.852787
2023-05-21T02:41:11.651Z,50.852848
2023-05-21T02:42:11.681Z,50.852814
2023-05-21T02:43:12.935Z,50.852810
2023-05-21T02:44:11.653Z,50.852833
2023-05-21T02:45:11.830Z,50.852802
2023-05-21T02:46:11.651Z,50.852798
2023-05-21T02:47:11.600Z,50.852829
2023-05-21T02:48:11.702Z,50.852798
2023-05-21T02:49:11.612Z,50.852802
2023-05-21T02:50:11.600Z,50.852810
2023-05-21T02:51:11.602Z,50.852779
2023-05-21T02:52:11.575Z,50.852821
2023-05-21T02:53:11.589Z,50.852818
2023-05-21T02:54:11.573Z,50.852795
2023-05-21T02:55:11.554Z,50.852814
2023-05-21T02:56:11.548Z,50.852818
2023-05-21T02:57:11.549Z,50.852814
2023-05-21T02:58:11.535Z,50.852779
2023-05-21T02:59:11.496Z,50.852776
2023-05-21T03:00:11.506Z,50.852821
2023-05-21T03:01:11.597Z,50.852818
2023-05-21T03:02:11.535Z,50.852821
2023-05-21T03:03:11.596Z,50.852814
2023-05-21T03:04:11.474Z,50.852810
2023-05-21T03:05:11.455Z,50.852818
2023-05-21T03:06:11.468Z,50.852821
2023-05-21T03:07:11.460Z,50.852852
2023-05-21T03:08:11.453Z,50.852863
2023-05-21T03:09:11.463Z,50.852871
2023-05-21T03:10:11.455Z,50.852844
2023-05-21T03:11:11.414Z,50.852818
2023-05-21T03:12:11.458Z,50.852810
2023-05-21T03:13:11.426Z,50.852821
2023-05-21T03:14:11.397Z,50.852833
2023-05-21T03:15:11.399Z,50.852802
2023-05-21T03:16:11.448Z,50.852806
2023-05-21T03:17:11.362Z,50.852814
2023-05-21T03:18:11.411Z,50.852806
2023-05-21T03:19:11.421Z,50.852848
2023-05-21T03:20:11.361Z,50.852837
2023-05-21T03:21:11.387Z,50.852825
2023-05-21T03:22:11.364Z,50.852848
2023-05-21T03:23:11.546Z,50.852840
2023-05-21T03:24:11.314Z,50.852863
2023-05-21T03:25:11.303Z,50.852863
2023-05-21T03:26:11.305Z,50.852882
2023-05-21T03:27:11.273Z,50.852886
2023-05-21T03:28:11.310Z,50.852859
2023-05-21T03:29:11.285Z,50.852856
2023-05-21T03:30:11.267Z,50.852818
2023-05-21T03:31:11.256Z,50.852844
2023-05-21T03:32:11.276Z,50.852852
2023-05-21T03:33:11.339Z,50.852798
2023-05-21T03:34:11.245Z,50.852783
2023-05-21T03:35:11.211Z,50.852787
2023-05-21T03:36:11.253Z,50.852825
2023-05-21T03:37:11.203Z,50.852810
2023-05-21T03:38:11.238Z,50.852810
2023-05-21T03:39:11.215Z,50.852783
2023-05-21T03:40:11.201Z,50.852795
2023-05-21T03:41:11.168Z,50.852821
2023-05-21T03:42:11.168Z,50.852814
2023-05-21T03:43:11.160Z,50.852863
2023-05-21T03:44:11.153Z,50.852867
2023-05-21T03:45:11.154Z,50.852833
2023-05-21T03:46:11.179Z,50.852806
2023-05-21T03:47:11.135Z,50.852768
2023-05-21T03:48:11.141Z,50.852722
2023-05-21T03:49:11.197Z,50.852699
2023-05-21T03:50:11.123Z,50.852722
2023-05-21T03:51:11.090Z,50.852814
2023-05-21T03:52:11.100Z,50.852867
2023-05-21T03:53:11.096Z,50.852882
2023-05-21T03:54:11.084Z,50.852829
2023-05-21T03:55:11.085Z,50.852802
2023-05-21T03:56:11.062Z,50.852753
2023-05-21T03:57:11.052Z,50.852772
2023-05-21T03:58:11.081Z,50.852760
2023-05-21T03:59:11.037Z,50.852798
2023-05-21T04:00:11.056Z,50.852760
2023-05-21T04:01:11.020Z,50.852764
2023-05-21T04:02:11.093Z,50.852730
2023-05-21T04:03:11.089Z,50.852760
2023-05-21T04:04:11.218Z,50.852757
2023-05-21T04:05:11.013Z,50.852764
2023-05-21T04:06:11.010Z,50.852776
2023-05-21T04:07:10.973Z,50.852764
2023-05-21T04:08:10.967Z,50.852768
2023-05-21T04:09:10.955Z,50.852749
2023-05-21T04:10:10.959Z,50.852783
2023-05-21T04:11:10.963Z,50.852795
2023-05-21T04:12:10.955Z,50.852810
2023-05-21T04:13:10.939Z,50.852791
2023-05-21T04:14:10.939Z,50.852783
2023-05-21T04:15:10.907Z,50.852779
2023-05-21T04:16:11.003Z,50.852798
2023-05-21T04:17:10.895Z,50.852791
2023-05-21T04:18:10.904Z,50.852806
2023-05-21T04:19:11.022Z,50.852798
2023-05-21T04:20:10.882Z,50.852787
2023-05-21T04:21:10.856Z,50.852779
2023-05-21T04:22:10.902Z,50.852783
2023-05-21T04:23:10.860Z,50.852787
2023-05-21T04:24:10.858Z,50.852791
2023-05-21T04:25:10.856Z,50.852753
2023-05-21T04:26:10.839Z,50.852776
2023-05-21T04:27:10.812Z,50.852818
2023-05-21T04:28:10.821Z,50.852779
2023-05-21T04:29:10.824Z,50.852779
2023-05-21T04:30:10.843Z,50.852764
2023-05-21T04:31:10.840Z,50.852798
2023-05-21T04:32:10.801Z,50.852795
2023-05-21T04:33:10.781Z,50.852768
2023-05-21T04:34:10.773Z,50.852791
2023-05-21T04:35:10.751Z,50.852795
2023-05-21T04:36:10.803Z,50.852776
2023-05-21T04:37:10.749Z,50.852779
2023-05-21T04:38:10.761Z,50.852795
2023-05-21T04:39:10.710Z,50.852776
2023-05-21T04:40:10.767Z,50.852787
2023-05-21T04:41:10.723Z,50.852776
2023-05-21T04:42:10.748Z,50.852764
2023-05-21T04:43:10.683Z,50.852760
2023-05-21T04:44:10.690Z,50.852749
2023-05-21T04:45:10.678Z,50.852783
2023-05-21T04:46:10.707Z,50.852787
2023-05-21T04:47:10.712Z,50.852783
2023-05-21T04:48:10.670Z,50.852814
2023-05-21T04:49:10.665Z,50.852810
2023-05-21T04:50:10.656Z,50.852798
2023-05-21T04:51:10.616Z,50.852760
2023-05-21T04:52:10.639Z,50.852745
2023-05-21T04:53:10.613Z,50.852741
2023-05-21T04:54:10.617Z,50.852749
2023-05-21T04:55:10.618Z,50.852768
2023-05-21T04:56:10.614Z,50.852768
2023-05-21T04:57:10.570Z,50.852772
2023-05-21T04:58:10.574Z,50.852776
2023-05-21T04:59:10.559Z,50.852806
2023-05-21T05:00:10.585Z,50.852802
2023-05-21T05:01:10.645Z,50.852783
2023-05-21T05:02:10.549Z,50.852787
2023-05-21T05:03:10.612Z,50.852764
2023-05-21T05:04:10.539Z,50.852772
2023-05-21T05:05:10.528Z,50.852783
2023-05-21T05:06:10.532Z,50.852795
2023-05-21T05:07:10.505Z,50.852768
2023-05-21T05:08:10.516Z,50.852779
2023-05-21T05:09:10.527Z,50.852776
2023-05-21T05:10:10.497Z,50.852753
2023-05-21T05:11:10.473Z,50.852749
2023-05-21T05:12:10.472Z,50.852764
2023-05-21T05:13:10.452Z,50.852779
2023-05-21T05:14:10.468Z,50.852760
2023-05-21T05:15:10.469Z,50.852791
2023-05-21T05:16:10.464Z,50.852795
2023-05-21T05:17:10.417Z,50.852779
2023-05-21T05:18:10.540Z,50.852791
2023-05-21T05:19:10.486Z,50.852772
2023-05-21T05:20:10.412Z,50.852764
2023-05-21T05:21:10.379Z,50.852779
2023-05-21T05:22:12.407Z,50.852764
2023-05-21T05:23:10.372Z,50.852760
2023-05-21T05:24:10.400Z,50.852776
2023-05-21T05:25:10.364Z,50.852776
2023-05-21T05:26:10.381Z,50.852757
2023-05-21T05:27:10.340Z,50.852749
2023-05-21T05:28:10.343Z,50.852753
2023-05-21T05:29:10.364Z,50.852772
2023-05-21T05:30:10.338Z,50.852783
2023-05-21T05:31:10.417Z,50.852810
2023-05-21T05:32:10.327Z,50.852783
2023-05-21T05:33:10.286Z,50.852795
2023-05-21T05:34:10.292Z,50.852764
2023-05-21T05:35:10.270Z,50.852757
2023-05-21T05:36:10.280Z,50.852768
2023-05-21T05:37:10.271Z,50.852783
2023-05-21T05:38:10.284Z,50.852787
2023-05-21T05:39:10.249Z,50.852772
2023-05-21T05:40:10.245Z,50.852806
2023-05-21T05:41:10.258Z,50.852768
2023-05-21T05:42:10.233Z,50.852802
2023-05-21T05:43:10.318Z,50.852783
2023-05-21T05:44:11.016Z,50.852776
2023-05-21T05:45:10.203Z,50.852768
2023-05-21T05:46:10.248Z,50.852757
2023-05-21T05:47:10.175Z,50.852776
2023-05-21T05:48:10.281Z,50.852791
2023-05-21T05:49:10.195Z,50.852798
2023-05-21T05:50:10.184Z,50.852837
2023-05-21T05:51:10.155Z,50.852779
2023-05-21T05:52:10.149Z,50.852791
2023-05-21T05:53:10.140Z,50.852806
2023-05-21T05:54:10.151Z,50.852791
2023-05-21T05:55:10.138Z,50.852802
2023-05-21T05:56:10.135Z,50.852779
2023-05-21T05:57:10.092Z,50.852787
2023-05-21T05:58:10.103Z,50.852779
2023-05-21T05:59:10.081Z,50.852757
2023-05-21T06:00:10.075Z,50.852776
2023-05-21T06:01:10.098Z,50.852726
2023-05-21T06:02:10.111Z,50.852741
2023-05-21T06:03:10.112Z,50.852745
2023-05-21T06:04:10.062Z,50.852760
2023-05-21T06:05:10.051Z,50.852772
2023-05-21T06:06:10.116Z,50.852757
2023-05-21T06:07:10.032Z,50.852722
2023-05-21T06:08:10.040Z,50.852745
2023-05-21T06:09:10.020Z,50.852737
2023-05-21T06:10:10.019Z,50.852718
2023-05-21T06:11:09.985Z,50.852730
2023-05-21T06:12:14.609Z,50.852718
2023-05-21T06:13:09.975Z,50.852737
2023-05-21T06:14:09.978Z,50.852703
2023-05-21T06:15:09.970Z,50.852707
2023-05-21T06:16:10.031Z,50.852737
2023-05-21T06:17:09.921Z,50.852722
2023-05-21T06:18:09.982Z,50.852741
2023-05-21T06:19:09.969Z,50.852726
2023-05-21T06:20:09.925Z,50.852726
2023-05-21T06:21:09.937Z,50.852722
2023-05-21T06:22:09.907Z,50.852764
2023-05-21T06:23:09.866Z,50.852768
2023-05-21T06:24:09.890Z,50.852764
2023-05-21T06:25:09.864Z,50.852783
2023-05-21T06:26:09.877Z,50.852795
2023-05-21T06:27:09.863Z,50.852779
2023-05-21T06:28:09.852Z,50.852783
2023-05-21T06:29:09.826Z,50.852791
2023-05-21T06:30:09.841Z,50.852818
2023-05-21T06:31:09.818Z,50.852795
2023-05-21T06:32:09.859Z,50.852768
2023-05-21T06:33:09.857Z,50.852753
2023-05-21T06:34:09.808Z,50.852757
2023-05-21T06:35:09.789Z,50.852768
2023-05-21T06:36:09.804Z,50.852764
2023-05-21T06:37:09.779Z,50.852757
2023-05-21T06:38:09.817Z,50.852730
2023-05-21T06:39:09.758Z,50.852737
2023-05-21T06:40:09.763Z,50.852726
2023-05-21T06:41:09.754Z,50.852737
2023-05-21T06:42:09.758Z,50.852734
2023-05-21T06:43:09.723Z,50.852745
2023-05-21T06:44:09.739Z,50.852753
2023-05-21T06:45:09.734Z,50.852764
2023-05-21T06:46:09.738Z,50.852760
2023-05-21T06:47:09.687Z,50.852791
2023-05-21T06:48:09.740Z,50.852772
2023-05-21T06:49:10.037Z,50.852745
2023-05-21T06:50:09.666Z,50.852749
2023-05-21T06:51:09.668Z,50.852741
2023-05-21T06:52:09.657Z,50.852791
2023-05-21T06:53:09.652Z,50.852753
2023-05-21T06:54:09.666Z,50.852833
2023-05-21T06:55:09.602Z,50.852776
2023-05-21T06:56:09.671Z,50.852760
2023-05-21T06:57:09.609Z,50.852753
2023-05-21T06:58:09.604Z,50.852772
2023-05-21T06:59:09.598Z,50.852726
2023-05-21T07:00:09.594Z,50.852722
2023-05-21T07:01:09.586Z,50.852734
2023-05-21T07:02:09.636Z,50.852737
2023-05-21T07:03:09.707Z,50.852722
2023-05-21T07:04:09.561Z,50.852730
2023-05-21T07:05:09.534Z,50.852749
2023-05-21T07:06:09.533Z,50.852741
2023-05-21T07:07:09.506Z,50.852715
2023-05-21T07:08:11.816Z,50.852711
2023-05-21T07:09:09.529Z,50.852749
2023-05-21T07:10:09.505Z,50.852760
2023-05-21T07:11:09.538Z,50.852757
2023-05-21T07:12:09.504Z,50.852749
2023-05-21T07:13:09.456Z,50.852753
2023-05-21T07:14:09.488Z,50.852749
2023-05-21T07:15:09.456Z,50.852753
2023-05-21T07:16:09.478Z,50.852730
2023-05-21T07:17:09.628Z,50.852726
2023-05-21T07:18:09.506Z,50.852764
2023-05-21T07:19:09.498Z,50.852734
2023-05-21T07:20:09.441Z,50.852741
2023-05-21T07:21:09.413Z,50.852734
2023-05-21T07:22:09.435Z,50.852734
2023-05-21T07:23:09.368Z,50.852749
2023-05-21T07:24:09.452Z,50.852764
2023-05-21T07:25:09.364Z,50.852772
2023-05-21T07:26:09.387Z,50.852753
2023-05-21T07:27:24.842Z,50.852688
2023-05-21T07:28:10.385Z,50.852734
2023-05-21T07:29:09.370Z,50.852844
2023-05-21T07:30:09.382Z,50.852871
2023-05-21T07:31:09.338Z,50.852840
2023-05-21T07:32:09.359Z,50.852928
2023-05-21T07:33:09.409Z,50.852898
2023-05-21T07:34:09.313Z,50.852867
2023-05-21T07:35:09.365Z,50.852966
2023-05-21T07:36:09.307Z,50.852852
2023-05-21T07:37:09.306Z,50.852825
2023-05-21T07:38:09.331Z,50.852856
2023-05-21T07:39:09.278Z,50.852779
2023-05-21T07:40:09.275Z,50.852798
2023-05-21T07:41:09.293Z,50.852745
2023-05-21T07:42:09.259Z,50.852737
2023-05-21T07:43:09.257Z,50.852730
2023-05-21T07:44:09.277Z,50.852776
2023-05-21T07:45:09.234Z,50.852795
2023-05-21T07:46:09.273Z,50.852703
2023-05-21T07:47:09.253Z,50.852726
2023-05-21T07:48:09.303Z,50.852734
2023-05-21T07:49:09.194Z,50.852734
2023-05-21T07:50:09.212Z,50.852741
2023-05-21T07:51:09.192Z,50.852871
2023-05-21T07:52:09.201Z,50.852821
2023-05-21T07:53:09.206Z,50.852753
2023-05-21T07:54:09.177Z,50.852676
2023-05-21T07:55:09.151Z,50.852734
2023-05-21T07:56:09.165Z,50.852661
2023-05-21T07:57:09.131Z,50.852749
2023-05-21T07:58:09.192Z,50.852821
2023-05-21T07:59:09.127Z,50.852753
2023-05-21T08:00:09.145Z,50.852764
2023-05-21T08:01:09.115Z,50.852764
2023-05-21T08:02:09.106Z,50.852734
2023-05-21T08:03:09.147Z,50.852757
2023-05-21T08:04:09.218Z,50.852745
2023-05-21T08:05:09.130Z,50.852734
2023-05-21T08:06:09.130Z,50.852787
2023-05-21T08:07:09.059Z,50.852757
2023-05-21T08:08:09.088Z,50.852745
2023-05-21T08:09:09.057Z,50.852753
2023-05-21T08:10:09.130Z,50.852772
2023-05-21T08:11:09.051Z,50.852798
2023-05-21T08:12:09.064Z,50.852829
2023-05-21T08:13:09.027Z,50.852798
2023-05-21T08:14:09.042Z,50.852787
2023-05-21T08:15:09.028Z,50.852787
2023-05-21T08:16:09.049Z,50.852768
2023-05-21T08:17:09.042Z,50.852753
2023-05-21T08:18:09.128Z,50.852783
2023-05-21T08:19:09.003Z,50.852783
2023-05-21T08:20:08.990Z,50.852764
2023-05-21T08:21:08.966Z,50.852776
2023-05-21T08:22:08.970Z,50.852757
2023-05-21T08:23:09.078Z,50.852757
2023-05-21T08:24:08.970Z,50.852810
2023-05-21T08:25:08.920Z,50.852791
2023-05-21T08:26:08.945Z,50.852802
2023-05-21T08:27:08.917Z,50.852818
2023-05-21T08:28:08.928Z,50.852802
2023-05-21T08:29:08.910Z,50.852772
2023-05-21T08:30:08.924Z,50.852821
2023-05-21T08:31:08.891Z,50.852821
2023-05-21T08:32:08.975Z,50.852814
2023-05-21T08:33:08.906Z,50.852795
2023-05-21T08:34:08.908Z,50.852787
2023-05-21T08:35:08.885Z,50.852734
2023-05-21T08:36:08.885Z,50.852737
2023-05-21T08:37:08.855Z,50.852745
2023-05-21T08:38:08.870Z,50.852749
2023-05-21T08:39:08.831Z,50.852734
2023-05-21T08:40:08.821Z,50.852741
2023-05-21T08:41:08.808Z,50.852753
2023-05-21T08:42:08.842Z,50.852757
2023-05-21T08:43:08.832Z,50.852757
2023-05-21T08:44:08.808Z,50.852764
2023-05-21T08:45:08.828Z,50.852776
2023-05-21T08:46:08.844Z,50.852757
2023-05-21T08:47:08.757Z,50.852722
2023-05-21T08:48:08.756Z,50.852745
2023-05-21T08:49:08.766Z,50.852715
2023-05-21T08:50:08.762Z,50.852764
2023-05-21T08:51:08.747Z,50.852768
2023-05-21T08:52:08.751Z,50.852722
2023-05-21T08:53:19.444Z,50.852711
2023-05-21T08:54:09.738Z,50.852741
2023-05-21T08:55:08.730Z,50.852734
2023-05-21T08:56:08.728Z,50.852764
2023-05-21T08:57:08.712Z,50.852741
2023-05-21T08:58:08.716Z,50.852764
2023-05-21T08:59:08.694Z,50.852772
2023-05-21T09:00:08.706Z,50.852741
2023-05-21T09:01:08.709Z,50.852814
2023-05-21T09:02:08.667Z,50.852814
2023-05-21T09:03:08.772Z,50.852787
2023-05-21T09:04:19.487Z,50.852779
2023-05-21T09:05:09.636Z,50.852783
2023-05-21T09:06:08.637Z,50.852791
2023-05-21T09:07:08.620Z,50.852787
2023-05-21T09:08:08.632Z,50.852768
2023-05-21T09:09:08.599Z,50.852787
2023-05-21T09:10:08.659Z,50.852760
2023-05-21T09:11:08.593Z,50.852760
2023-05-21T09:12:08.601Z,50.852730
2023-05-21T09:13:08.583Z,50.852730
2023-05-21T09:14:08.616Z,50.852802
2023-05-21T09:15:08.572Z,50.852802
2023-05-21T09:16:08.604Z,50.852840
2023-05-21T09:17:08.561Z,50.852844
2023-05-21T09:18:08.610Z,50.852833
2023-05-21T09:19:08.573Z,50.852814
2023-05-21T09:20:08.553Z,50.852814
2023-05-21T09:21:08.552Z,50.852795
2023-05-21T09:22:08.567Z,50.852791
2023-05-21T09:23:08.515Z,50.852757
2023-05-21T09:24:08.541Z,50.852757
2023-05-21T09:25:08.534Z,50.852764
2023-05-21T09:26:08.540Z,50.852768
2023-05-21T09:27:08.486Z,50.852764
2023-05-21T09:28:08.498Z,50.852768
2023-05-21T09:29:08.470Z,50.852772
2023-05-21T09:30:08.485Z,50.852760
2023-05-21T09:31:08.490Z,50.852776
2023-05-21T09:32:08.511Z,50.852764
2023-05-21T09:33:08.466Z,50.852776
2023-05-21T09:34:08.472Z,50.852779
2023-05-21T09:35:08.428Z,50.852757
2023-05-21T09:36:08.484Z,50.852760
2023-05-21T09:37:13.503Z,50.852753
2023-05-21T09:38:09.455Z,50.852753
2023-05-21T09:39:08.402Z,50.852749
2023-05-21T09:40:08.426Z,50.852737
2023-05-21T09:41:08.376Z,50.852711
2023-05-21T09:42:08.378Z,50.852726
2023-05-21T09:43:08.373Z,50.852741
2023-05-21T09:44:08.398Z,50.852741
2023-05-21T09:45:08.378Z,50.852760
2023-05-21T09:46:08.401Z,50.852741
2023-05-21T09:47:08.351Z,50.852726
2023-05-21T09:48:08.447Z,50.852741
2023-05-21T09:49:08.338Z,50.852760
2023-05-21T09:50:08.332Z,50.852699
2023-05-21T09:51:08.331Z,50.852798
2023-05-21T09:52:08.361Z,50.852791
2023-05-21T09:53:08.317Z,50.852760
2023-05-21T09:54:08.360Z,50.852772
2023-05-21T09:55:08.288Z,50.852772
2023-05-21T09:56:08.322Z,50.852757
2023-05-21T09:57:08.301Z,50.852779
2023-05-21T09:58:08.288Z,50.852791
2023-05-21T09:59:08.254Z,50.852783
2023-05-21T10:00:08.281Z,50.852764
2023-05-21T10:01:08.243Z,50.852764
2023-05-21T10:02:08.396Z,50.852760
2023-05-21T10:03:08.375Z,50.852779
2023-05-21T10:04:08.315Z,50.852768
2023-05-21T10:05:08.228Z,50.852760
2023-05-21T10:06:08.235Z,50.852783
2023-05-21T10:07:08.244Z,50.852753
2023-05-21T10:08:08.206Z,50.852760
2023-05-21T10:09:08.260Z,50.852787
2023-05-21T10:10:08.206Z,50.852764
2023-05-21T10:11:08.184Z,50.852753
2023-05-21T10:12:08.193Z,50.852734
2023-05-21T10:13:08.170Z,50.852737
2023-05-21T10:14:08.219Z,50.852726
2023-05-21T10:15:08.204Z,50.852745
2023-05-21T10:16:08.186Z,50.852745
2023-05-21T10:17:08.130Z,50.852764
2023-05-21T10:18:08.181Z,50.852753
2023-05-21T10:19:08.153Z,50.852753
2023-05-21T10:20:08.135Z,50.852749
2023-05-21T10:21:08.155Z,50.852764
2023-05-21T10:22:08.102Z,50.852764
2023-05-21T10:23:08.127Z,50.852779
2023-05-21T10:24:08.095Z,50.852760
2023-05-21T10:25:08.135Z,50.852768
2023-05-21T10:26:08.087Z,50.852776
2023-05-21T10:27:08.077Z,50.852760
2023-05-21T10:28:08.095Z,50.852776
2023-05-21T10:29:08.088Z,50.852764
2023-05-21T10:30:08.059Z,50.852699
2023-05-21T10:31:08.066Z,50.852642
2023-05-21T10:32:08.057Z,50.852684
2023-05-21T10:33:08.073Z,50.852753
2023-05-21T10:34:08.021Z,50.852757
2023-05-21T10:35:08.019Z,50.852791
2023-05-21T10:36:08.013Z,50.852772
2023-05-21T10:37:08.001Z,50.852753
2023-05-21T10:38:07.998Z,50.852772
2023-05-21T10:39:07.986Z,50.852730
2023-05-21T10:40:07.976Z,50.852764
2023-05-21T10:41:07.992Z,50.852757
2023-05-21T10:42:08.014Z,50.852798
2023-05-21T10:43:07.950Z,50.852779
2023-05-21T10:44:07.971Z,50.852776
2023-05-21T10:45:07.969Z,50.852772
2023-05-21T10:46:08.058Z,50.852760
2023-05-21T10:47:07.957Z,50.852783
2023-05-21T10:48:07.965Z,50.852764
2023-05-21T10:49:07.940Z,50.852764
2023-05-21T10:50:07.930Z,50.852791
2023-05-21T10:51:07.918Z,50.852795
2023-05-21T10:52:07.930Z,50.852760
2023-05-21T10:53:10.579Z,50.852772
2023-05-21T10:54:07.958Z,50.852757
2023-05-21T10:55:07.865Z,50.852760
2023-05-21T10:56:07.907Z,50.852760
2023-05-21T10:57:07.853Z,50.852760
2023-05-21T10:58:07.857Z,50.852757
2023-05-21T10:59:07.867Z,50.852772
2023-05-21T11:00:07.869Z,50.852764
2023-05-21T11:01:07.896Z,50.852764
2023-05-21T11:02:07.954Z,50.852776
2023-05-21T11:03:07.894Z,50.852776
2023-05-21T11:04:07.821Z,50.852783
2023-05-21T11:05:07.808Z,50.852776
2023-05-21T11:06:07.808Z,50.852806
2023-05-21T11:07:07.795Z,50.852791
2023-05-21T11:08:07.830Z,50.852798
2023-05-21T11:09:07.780Z,50.852802
2023-05-21T11:10:07.778Z,50.852772
2023-05-21T11:11:07.789Z,50.852757
2023-05-21T11:12:07.780Z,50.852764
2023-05-21T11:13:07.764Z,50.852787
2023-05-21T11:14:07.752Z,50.852798
2023-05-21T11:15:07.754Z,50.852779
2023-05-21T11:16:07.769Z,50.852779
2023-05-21T11:17:07.764Z,50.852776
2023-05-21T11:18:07.737Z,50.852776
2023-05-21T11:19:07.850Z,50.852795
2023-05-21T11:20:07.735Z,50.852795
2023-05-21T11:21:07.710Z,50.852772
2023-05-21T11:22:07.712Z,50.852745
2023-05-21T11:23:07.726Z,50.852741
2023-05-21T11:24:07.705Z,50.852772